Airfield :
LOGIN :

Register | Disclaimer

   EN    FR    IT 

 










Legend :    VFR   Marginal VFR   IFR   Intensive IFR   Very Intensive IFR
Visi :
Ceiling :
>= 8 km
>= 3000ft
5 to 8 km
1000 to 3000 ft
1500m to 5 km
500 to 1000 ft
800 to 1500m
200 to 500 ft
< 800m
< 200 ft
Symbols :   Thunderstorms  Fog  Heavy snow  Heavy precipitations  Wind > 20 kt
SIGMETs :     Misc.  Thunderstorms  Icing  Turbulence  Mountain Waves  Volcanic Ashes







- Airport Elevation : 313 ft
- IATA code : LEH
- Download approach charts


LFOH - Le Havre Octeville

CURRENT METAR :
  • 211300Z AUTO 31008KT 7000 OVC005 17/15 Q1015 TEMPO 4000 BR

EXPIRED METARs :
  • 211230Z AUTO 31008KT 270V330 5000 BR OVC004 17/15 Q1015 NOSIG
  • 211200Z AUTO 31008KT 270V330 5000 BR BKN004 OVC009 17/16 Q1015 NOSIG
  • 211130Z AUTO 30007KT 4400 BR BKN004 OVC008 17/16 Q1015 NOSIG
  • 211100Z AUTO 30007KT 5000 BR BKN004 OVC012 17/15 Q1014 BECMG BKN020
  • 211030Z AUTO 31008KT 5000 BR BKN006 OVC011 17/15 Q1014 BECMG BKN020

TAF TAF LFOH
Valid from the 21 at 12:00 until the 22 at 12:00 UTC


211100Z 2112/2212 30005KT 9999 BKN025
TEMPO 2112/2115 4000 BR BKN004
PROB40 2204/2206 0200 FG VV///
ATIS : +33 2 35 54 64 93
No reported NOTAMs for that airfield.



MET'MAP, your aeronautical weather chart ! - Copyright ORBIFLY December 2007 - Disclaimer

ORBIFLY MET'MAP TEAM :

Programming & Development : Alexandra Zaïnal
Concept & Development : Baudouin d'Aumeries
Co-Development & Prog : Marc-Olivier Méhu
Technical & hardware support : Manuel Goepfert

Contact : metmap@orbifly.com




SOURCES & CREDITS :

   NOAA